Time;durP1;ratioP1;P1;durP2;ratioP2;P2;SDS_P1;SDS_P2;PMS_P1;PMS_P2;Temp;Humidity;BMP_temperature;BMP_pressure;BME280_temperature;BME280_humidity;BME280_pressure;Samples;Min_cycle;Max_cycle;Signal;HPM_P1;HPM_P2
2022/07/20 00:00:44;;;;;;;10.13;4.57;;;;;;;;;;5034495;28;20108;-78
2022/07/20 00:03:11;;;;;;;11.88;4.90;;;;;;;;;;5033022;28;20123;-76
2022/07/20 00:05:38;;;;;;;9.80;4.93;;;;;;;;;;5032496;28;20462;-77
2022/07/20 00:08:04;;;;;;;12.07;4.63;;;;;;;;;;5030578;28;20435;-77
2022/07/20 00:13:16;;;;;;;10.45;4.85;;;;;;;;;;5032443;28;20108;-77
2022/07/20 00:15:42;;;;;;;10.10;5.07;;;;;;;;;;5033051;28;20048;-78
2022/07/20 00:18:08;;;;;;;8.43;4.70;;;;;;;;;;5034099;28;20029;-78
2022/07/20 00:20:35;;;;;;;10.15;4.60;;;;;;;;;;5035435;28;20030;-77
2022/07/20 00:23:01;;;;;;;7.65;4.70;;;;;;;;;;5039134;28;20025;-77
2022/07/20 00:25:27;;;;;;;6.68;4.93;;;;;;;;;;5039728;28;20082;-78
2022/07/20 00:27:53;;;;;;;11.02;4.88;;;;;;;;;;5038341;28;20214;-78
2022/07/20 00:30:19;;;;;;;15.05;4.90;;;;;;;;;;5040271;28;20037;-78
2022/07/20 00:32:46;;;;;;;9.10;4.63;;;;;;;;;;5038820;28;20036;-76
2022/07/20 00:35:14;;;;;;;10.75;4.97;;;;;;;;;;5038227;28;20055;-76
2022/07/20 00:37:40;;;;;;;11.80;5.10;;;;;;;;;;5037250;28;20049;-78
2022/07/20 00:40:07;;;;;;;8.27;4.90;;;;;;;;;;5037808;28;20041;-76
2022/07/20 00:42:36;;;;;;;9.45;4.78;;;;;;;;;;5037831;28;20069;-77
2022/07/20 00:45:07;;;;;;;8.88;4.55;;;;;;;;;;5035958;28;20029;-78
2022/07/20 00:47:33;;;;;;;12.98;5.13;;;;;;;;;;5035211;28;20029;-77
2022/07/20 00:49:59;;;;;;;20.88;4.75;;;;;;;;;;5034815;28;20487;-76
2022/07/20 00:52:25;;;;;;;9.77;4.78;;;;;;;;;;5033097;28;20048;-76
2022/07/20 00:54:53;;;;;;;11.45;5.85;;;;;;;;;;5035925;28;20040;-77
2022/07/20 00:57:19;;;;;;;9.73;5.28;;;;;;;;;;5035320;28;20513;-76
2022/07/20 00:59:45;;;;;;;7.47;5.00;;;;;;;;;;5036447;28;20432;-77
2022/07/20 01:02:11;;;;;;;11.23;5.20;;;;;;;;;;5036090;28;20045;-77
2022/07/20 01:04:38;;;;;;;11.88;4.70;;;;;;;;;;5036622;28;20108;-77
2022/07/20 01:07:04;;;;;;;10.50;5.40;;;;;;;;;;5037750;28;20026;-79
2022/07/20 01:09:30;;;;;;;10.13;5.32;;;;;;;;;;5038964;28;20025;-77
2022/07/20 01:11:56;;;;;;;11.05;5.72;;;;;;;;;;5043098;28;20030;-77
2022/07/20 01:14:22;;;;;;;11.20;5.00;;;;;;;;;;5042093;28;20022;-77
2022/07/20 01:16:48;;;;;;;15.90;5.35;;;;;;;;;;5042680;28;20467;-77
2022/07/20 01:19:14;;;;;;;16.02;5.85;;;;;;;;;;5042800;28;20033;-77
2022/07/20 01:21:40;;;;;;;11.15;4.97;;;;;;;;;;5042590;28;20501;-76
2022/07/20 01:24:11;;;;;;;10.32;5.38;;;;;;;;;;5041187;28;20132;-78
2022/07/20 01:26:38;;;;;;;10.27;4.90;;;;;;;;;;5043158;28;20025;-76
2022/07/20 01:29:04;;;;;;;10.70;5.47;;;;;;;;;;5042424;28;20032;-77
2022/07/20 01:31:30;;;;;;;14.07;5.57;;;;;;;;;;5042031;28;20033;-77
2022/07/20 01:33:56;;;;;;;13.50;5.05;;;;;;;;;;5040177;28;20037;-78
2022/07/20 01:36:22;;;;;;;9.23;5.45;;;;;;;;;;5041236;28;20061;-78
2022/07/20 01:38:48;;;;;;;10.73;5.55;;;;;;;;;;5039723;28;20100;-78
2022/07/20 01:41:15;;;;;;;11.68;5.82;;;;;;;;;;5037242;28;20033;-78
2022/07/20 01:43:42;;;;;;;11.43;5.10;;;;;;;;;;5036509;28;20025;-78
2022/07/20 01:46:08;;;;;;;10.60;6.00;;;;;;;;;;5035090;28;20076;-76
2022/07/20 01:48:34;;;;;;;12.95;6.18;;;;;;;;;;5034218;28;20380;-76
2022/07/20 01:51:00;;;;;;;13.38;6.10;;;;;;;;;;5034372;28;20021;-77
2022/07/20 01:53:26;;;;;;;9.57;5.60;;;;;;;;;;5034098;28;20033;-76
2022/07/20 01:55:52;;;;;;;13.63;5.95;;;;;;;;;;5034243;28;20025;-78
2022/07/20 01:58:18;;;;;;;11.52;5.13;;;;;;;;;;5035091;28;20049;-78
2022/07/20 02:00:44;;;;;;;16.65;5.50;;;;;;;;;;5036246;28;20045;-77
2022/07/20 02:03:10;;;;;;;14.40;6.28;;;;;;;;;;5036502;28;20027;-77
2022/07/20 02:05:36;;;;;;;15.05;5.93;;;;;;;;;;5037740;28;20049;-76
2022/07/20 02:08:03;;;;;;;13.95;5.95;;;;;;;;;;5041259;28;20590;-76
2022/07/20 02:10:29;;;;;;;19.35;5.85;;;;;;;;;;5041845;28;20112;-76
2022/07/20 02:12:55;;;;;;;13.82;5.88;;;;;;;;;;5041918;28;20021;-76
2022/07/20 02:18:07;;;;;;;15.07;5.93;;;;;;;;;;5042837;28;20069;-76
2022/07/20 02:20:33;;;;;;;13.45;6.20;;;;;;;;;;5043569;28;20037;-78
2022/07/20 02:22:59;;;;;;;12.48;6.22;;;;;;;;;;5042867;28;20578;-77
2022/07/20 02:25:25;;;;;;;14.52;6.22;;;;;;;;;;5041078;28;20487;-77
2022/07/20 02:27:52;;;;;;;13.73;6.43;;;;;;;;;;5043007;28;20033;-78
2022/07/20 02:30:18;;;;;;;11.13;5.65;;;;;;;;;;5041481;28;20036;-78
2022/07/20 02:32:44;;;;;;;13.50;6.38;;;;;;;;;;5038374;28;20033;-78
2022/07/20 02:35:10;;;;;;;15.07;5.90;;;;;;;;;;5039308;28;20036;-79
2022/07/20 02:37:36;;;;;;;33.63;6.93;;;;;;;;;;5036799;28;20029;-78
2022/07/20 02:40:02;;;;;;;21.73;6.28;;;;;;;;;;5033626;28;20034;-77
2022/07/20 02:42:28;;;;;;;13.95;6.13;;;;;;;;;;5033835;28;20033;-77
2022/07/20 02:44:54;;;;;;;14.98;6.63;;;;;;;;;;5032711;28;20091;-76
2022/07/20 02:47:20;;;;;;;12.45;6.70;;;;;;;;;;5033212;28;20072;-77
2022/07/20 02:49:46;;;;;;;18.58;6.70;;;;;;;;;;5032254;28;20033;-77
2022/07/20 02:52:12;;;;;;;25.98;8.10;;;;;;;;;;5032873;28;20064;-77
2022/07/20 02:54:38;;;;;;;18.50;7.68;;;;;;;;;;5033625;28;20029;-77
2022/07/20 02:57:04;;;;;;;19.20;7.55;;;;;;;;;;5033504;28;20032;-77
2022/07/20 02:59:30;;;;;;;17.67;8.10;;;;;;;;;;5034387;28;20056;-78
2022/07/20 03:01:56;;;;;;;15.45;8.25;;;;;;;;;;5036214;28;20037;-77
2022/07/20 03:04:22;;;;;;;16.67;8.50;;;;;;;;;;5036701;28;20080;-77
2022/07/20 03:06:48;;;;;;;15.45;8.98;;;;;;;;;;5038884;28;20046;-77
2022/07/20 03:09:14;;;;;;;23.02;10.02;;;;;;;;;;5040730;28;20101;-77
2022/07/20 03:11:40;;;;;;;23.83;10.20;;;;;;;;;;5040750;28;20037;-77
2022/07/20 03:14:06;;;;;;;18.35;10.65;;;;;;;;;;5039563;28;20037;-78
2022/07/20 03:16:32;;;;;;;24.08;10.98;;;;;;;;;;5041339;28;20103;-77
2022/07/20 03:18:58;;;;;;;19.75;11.05;;;;;;;;;;5042618;28;20113;-77
2022/07/20 03:21:27;;;;;;;22.48;11.77;;;;;;;;;;5040902;28;20561;-78
2022/07/20 03:23:54;;;;;;;25.85;11.75;;;;;;;;;;5039091;28;20037;-77
2022/07/20 03:26:21;;;;;;;19.83;11.20;;;;;;;;;;5041849;28;20049;-77
2022/07/20 03:28:47;;;;;;;24.40;11.15;;;;;;;;;;5041294;28;20032;-77
2022/07/20 03:31:13;;;;;;;24.85;12.23;;;;;;;;;;5039019;28;20030;-77
2022/07/20 03:33:39;;;;;;;26.35;12.52;;;;;;;;;;5036331;28;20069;-78
2022/07/20 03:36:05;;;;;;;24.67;12.82;;;;;;;;;;5038205;28;20037;-77
2022/07/20 03:38:31;;;;;;;31.08;14.15;;;;;;;;;;5035475;28;20079;-77
2022/07/20 03:40:57;;;;;;;24.02;14.05;;;;;;;;;;5033935;28;20172;-77
2022/07/20 03:43:25;;;;;;;30.17;15.18;;;;;;;;;;5033116;28;20041;-77
2022/07/20 03:45:52;;;;;;;30.10;15.13;;;;;;;;;;5031398;28;20048;-77
2022/07/20 03:48:18;;;;;;;27.30;15.35;;;;;;;;;;5032388;28;20038;-77
2022/07/20 03:50:46;;;;;;;31.48;16.50;;;;;;;;;;5031853;28;20490;-78
2022/07/20 03:53:13;;;;;;;29.90;17.17;;;;;;;;;;5032250;28;20033;-75
2022/07/20 03:55:39;;;;;;;35.30;17.40;;;;;;;;;;5032251;28;20022;-78
2022/07/20 03:58:05;;;;;;;39.65;17.50;;;;;;;;;;5032364;28;20053;-76
2022/07/20 04:00:31;;;;;;;33.08;19.25;;;;;;;;;;5033696;28;20033;-78
2022/07/20 04:02:57;;;;;;;37.50;19.48;;;;;;;;;;5049488;28;20036;-78
2022/07/20 04:05:23;;;;;;;66.60;21.73;;;;;;;;;;5033347;28;20396;-77
2022/07/20 04:07:49;;;;;;;44.00;20.50;;;;;;;;;;5048232;28;20013;-77
2022/07/20 04:10:15;;;;;;;43.85;20.48;;;;;;;;;;5059217;28;20383;-78
2022/07/20 04:12:41;;;;;;;59.80;21.20;;;;;;;;;;5057117;28;20104;-77
2022/07/20 04:15:08;;;;;;;38.58;22.05;;;;;;;;;;5062288;28;20120;-77
2022/07/20 04:17:34;;;;;;;44.80;21.65;;;;;;;;;;5067469;28;20036;-77
2022/07/20 04:20:00;;;;;;;40.15;23.40;;;;;;;;;;5056254;28;20087;-77
2022/07/20 04:22:26;;;;;;;39.00;23.00;;;;;;;;;;5046805;28;20033;-78
2022/07/20 04:24:52;;;;;;;45.67;25.83;;;;;;;;;;5047715;28;20110;-77
2022/07/20 04:27:18;;;;;;;51.90;26.75;;;;;;;;;;5045171;28;20105;-78
2022/07/20 04:29:44;;;;;;;46.83;27.05;;;;;;;;;;5043934;28;20029;-77
2022/07/20 04:32:10;;;;;;;42.13;26.90;;;;;;;;;;5043640;28;20009;-78
2022/07/20 04:34:36;;;;;;;48.10;28.00;;;;;;;;;;5044685;28;20029;-78
2022/07/20 04:37:02;;;;;;;54.30;29.25;;;;;;;;;;5042661;28;20026;-76
2022/07/20 04:39:28;;;;;;;56.05;28.98;;;;;;;;;;5040636;28;20443;-76
2022/07/20 04:41:54;;;;;;;55.20;30.52;;;;;;;;;;5040706;28;20044;-77
2022/07/20 04:44:20;;;;;;;49.30;29.67;;;;;;;;;;5038776;28;20037;-77
2022/07/20 04:46:46;;;;;;;52.83;31.25;;;;;;;;;;5035228;28;20451;-76
2022/07/20 04:49:12;;;;;;;57.60;30.10;;;;;;;;;;5032786;28;20033;-76
2022/07/20 04:51:38;;;;;;;52.58;31.38;;;;;;;;;;5032194;28;20037;-76
2022/07/20 04:54:04;;;;;;;54.38;30.75;;;;;;;;;;5031524;28;20024;-78
2022/07/20 04:56:30;;;;;;;50.03;29.55;;;;;;;;;;5030870;28;20033;-78
2022/07/20 04:58:56;;;;;;;52.97;31.23;;;;;;;;;;5030985;28;20122;-78
2022/07/20 05:01:23;;;;;;;51.03;30.73;;;;;;;;;;5033348;28;20543;-77
2022/07/20 05:03:49;;;;;;;52.92;31.60;;;;;;;;;;5032675;28;20048;-77
2022/07/20 05:06:16;;;;;;;62.17;32.70;;;;;;;;;;5032893;28;20101;-77
2022/07/20 05:08:42;;;;;;;59.60;32.42;;;;;;;;;;5033122;28;20022;-78
2022/07/20 05:11:09;;;;;;;49.33;30.67;;;;;;;;;;5033467;28;20030;-77
2022/07/20 05:13:35;;;;;;;50.70;31.80;;;;;;;;;;5035768;28;20061;-77
2022/07/20 05:16:01;;;;;;;48.63;29.73;;;;;;;;;;5037863;28;20038;-77
2022/07/20 05:18:29;;;;;;;48.72;30.92;;;;;;;;;;5037525;28;20033;-78
2022/07/20 05:20:55;;;;;;;56.30;33.20;;;;;;;;;;5038382;28;20022;-77
2022/07/20 05:23:21;;;;;;;56.55;33.10;;;;;;;;;;5039673;28;20092;-77
2022/07/20 05:25:49;;;;;;;44.95;30.02;;;;;;;;;;5040390;28;20026;-77
2022/07/20 05:28:18;;;;;;;50.53;31.60;;;;;;;;;;5038241;28;20546;-77
2022/07/20 05:30:44;;;;;;;55.15;31.90;;;;;;;;;;5040740;28;20056;-76
2022/07/20 05:33:10;;;;;;;44.25;31.17;;;;;;;;;;5040811;28;20014;-78
2022/07/20 05:35:36;;;;;;;51.38;30.75;;;;;;;;;;5039555;28;20215;-76
2022/07/20 05:38:02;;;;;;;52.70;31.77;;;;;;;;;;5038544;28;20068;-77
2022/07/20 05:40:28;;;;;;;46.58;30.65;;;;;;;;;;5041215;28;20065;-77
2022/07/20 05:42:54;;;;;;;49.88;31.10;;;;;;;;;;5041918;28;20097;-77
2022/07/20 05:45:20;;;;;;;51.35;30.60;;;;;;;;;;5039977;28;20025;-77
2022/07/20 05:47:46;;;;;;;43.33;29.98;;;;;;;;;;5039648;28;20056;-77
2022/07/20 05:50:12;;;;;;;44.30;29.63;;;;;;;;;;5038281;28;20479;-77
2022/07/20 05:52:38;;;;;;;48.33;28.90;;;;;;;;;;5037654;28;20193;-76
2022/07/20 05:55:05;;;;;;;49.40;29.83;;;;;;;;;;5036498;28;20061;-78
2022/07/20 05:57:31;;;;;;;43.40;28.25;;;;;;;;;;5035804;28;20056;-78
2022/07/20 05:59:57;;;;;;;46.65;29.98;;;;;;;;;;5035362;28;20467;-79
2022/07/20 06:02:23;;;;;;;41.70;28.40;;;;;;;;;;5034959;28;20026;-78
2022/07/20 06:04:49;;;;;;;38.85;27.52;;;;;;;;;;5034360;28;20025;-78
2022/07/20 06:07:15;;;;;;;48.38;28.60;;;;;;;;;;5032884;28;20041;-78
2022/07/20 06:09:41;;;;;;;41.45;27.45;;;;;;;;;;5033267;28;20415;-78
2022/07/20 06:12:07;;;;;;;48.90;27.67;;;;;;;;;;5034252;28;20038;-77
2022/07/20 06:14:33;;;;;;;38.42;26.10;;;;;;;;;;5033843;28;20038;-77
2022/07/20 06:16:59;;;;;;;37.13;24.25;;;;;;;;;;5036465;28;20033;-79
2022/07/20 06:19:25;;;;;;;39.67;23.10;;;;;;;;;;5036869;28;20033;-77
2022/07/20 06:21:51;;;;;;;33.80;20.73;;;;;;;;;;5038652;28;20411;-78
2022/07/20 06:24:18;;;;;;;32.10;19.77;;;;;;;;;;5040613;28;20510;-78
2022/07/20 06:26:44;;;;;;;31.55;18.98;;;;;;;;;;5039967;28;20037;-79
2022/07/20 06:29:10;;;;;;;34.13;18.55;;;;;;;;;;5041736;28;20033;-79
2022/07/20 06:31:36;;;;;;;30.33;19.02;;;;;;;;;;5041626;28;20029;-79
2022/07/20 06:34:04;;;;;;;32.25;19.40;;;;;;;;;;5042467;28;20376;-78
2022/07/20 06:36:30;;;;;;;34.30;20.20;;;;;;;;;;5040979;28;20048;-77
2022/07/20 06:38:56;;;;;;;35.33;21.00;;;;;;;;;;5042405;28;20430;-78
2022/07/20 06:41:22;;;;;;;35.72;21.33;;;;;;;;;;5042501;28;20022;-78
2022/07/20 06:43:48;;;;;;;37.20;21.90;;;;;;;;;;5041447;28;20037;-78
2022/07/20 06:46:14;;;;;;;36.20;21.40;;;;;;;;;;5042857;28;20032;-79
2022/07/20 06:48:40;;;;;;;30.02;20.30;;;;;;;;;;5043036;28;20108;-77
2022/07/20 06:51:07;;;;;;;29.58;20.45;;;;;;;;;;5042010;28;20076;-78
2022/07/20 06:53:33;;;;;;;29.95;19.98;;;;;;;;;;5042675;28;20026;-77
2022/07/20 06:56:00;;;;;;;38.63;21.02;;;;;;;;;;5043168;28;20029;-77
2022/07/20 06:58:26;;;;;;;30.85;20.63;;;;;;;;;;5040593;28;20061;-78
2022/07/20 07:00:52;;;;;;;35.33;19.77;;;;;;;;;;5039768;28;20049;-77
2022/07/20 07:03:18;;;;;;;32.97;19.73;;;;;;;;;;5039279;28;20033;-78
2022/07/20 07:05:44;;;;;;;34.40;18.70;;;;;;;;;;5036633;28;20029;-78
2022/07/20 07:08:10;;;;;;;46.85;17.60;;;;;;;;;;5035311;28;20033;-78
2022/07/20 07:10:36;;;;;;;45.53;17.83;;;;;;;;;;5035823;28;20038;-77
2022/07/20 07:13:02;;;;;;;35.05;17.38;;;;;;;;;;5036333;28;20025;-78
2022/07/20 07:15:28;;;;;;;50.63;16.38;;;;;;;;;;5034272;28;20376;-77
2022/07/20 07:17:54;;;;;;;29.75;15.30;;;;;;;;;;5034438;28;20042;-78
2022/07/20 07:20:20;;;;;;;28.38;14.60;;;;;;;;;;5033015;28;20104;-78
2022/07/20 07:22:46;;;;;;;30.88;14.38;;;;;;;;;;5034108;28;20122;-78
2022/07/20 07:25:12;;;;;;;32.67;14.15;;;;;;;;;;5032715;28;20026;-76
2022/07/20 07:27:38;;;;;;;27.17;13.45;;;;;;;;;;5032831;28;20022;-77
2022/07/20 07:30:05;;;;;;;28.45;13.00;;;;;;;;;;5032481;28;20033;-79
2022/07/20 07:32:31;;;;;;;32.50;12.88;;;;;;;;;;5035011;28;20030;-77
2022/07/20 07:34:57;;;;;;;32.83;12.98;;;;;;;;;;5035970;28;20037;-78
2022/07/20 07:37:23;;;;;;;25.30;12.25;;;;;;;;;;5037903;28;20022;-77
2022/07/20 07:39:49;;;;;;;26.10;12.15;;;;;;;;;;5038654;28;20034;-78
2022/07/20 07:42:15;;;;;;;23.05;11.90;;;;;;;;;;5038957;28;20083;-78
2022/07/20 07:44:41;;;;;;;31.20;12.35;;;;;;;;;;5039697;28;20128;-79
2022/07/20 07:47:07;;;;;;;20.63;11.02;;;;;;;;;;5042797;28;20071;-78
2022/07/20 07:49:33;;;;;;;24.50;12.23;;;;;;;;;;5041881;28;20037;-79
2022/07/20 07:51:59;;;;;;;25.63;11.18;;;;;;;;;;5040692;28;20033;-79
2022/07/20 07:54:25;;;;;;;22.98;11.20;;;;;;;;;;5042227;28;20029;-77
2022/07/20 07:56:51;;;;;;;22.83;11.02;;;;;;;;;;5042906;28;20081;-79
2022/07/20 07:59:17;;;;;;;21.33;10.77;;;;;;;;;;5041507;28;20164;-79
2022/07/20 08:01:43;;;;;;;19.42;10.38;;;;;;;;;;5042827;28;20501;-79
2022/07/20 08:04:10;;;;;;;20.92;10.73;;;;;;;;;;5042980;28;20048;-78
2022/07/20 08:06:36;;;;;;;18.88;10.52;;;;;;;;;;5040457;28;20076;-78
2022/07/20 08:09:03;;;;;;;20.95;10.00;;;;;;;;;;5038320;28;20029;-77
2022/07/20 08:11:29;;;;;;;27.88;10.75;;;;;;;;;;5039166;28;20056;-77
2022/07/20 08:13:55;;;;;;;22.40;10.82;;;;;;;;;;5036816;28;20033;-77
2022/07/20 08:16:21;;;;;;;18.40;10.27;;;;;;;;;;5036005;28;20053;-79
2022/07/20 08:18:47;;;;;;;22.02;11.32;;;;;;;;;;5035384;28;20029;-77
2022/07/20 08:21:13;;;;;;;27.35;12.00;;;;;;;;;;5032588;28;20030;-79
2022/07/20 08:23:39;;;;;;;26.65;12.05;;;;;;;;;;5032973;28;20044;-78
2022/07/20 08:26:05;;;;;;;23.70;11.82;;;;;;;;;;5033303;28;20022;-78
2022/07/20 08:28:31;;;;;;;26.23;12.00;;;;;;;;;;5032407;28;20034;-78
2022/07/20 08:31:00;;;;;;;22.25;11.63;;;;;;;;;;5030803;28;20038;-77
2022/07/20 08:33:26;;;;;;;22.58;11.32;;;;;;;;;;5031951;28;20109;-77
2022/07/20 08:35:52;;;;;;;35.95;12.05;;;;;;;;;;5032230;28;20052;-78
2022/07/20 08:38:18;;;;;;;19.63;11.30;;;;;;;;;;5032477;28;20035;-77
2022/07/20 08:40:44;;;;;;;21.48;10.60;;;;;;;;;;5032737;28;20240;-78
2022/07/20 08:43:10;;;;;;;20.85;10.07;;;;;;;;;;5033642;28;20056;-78
2022/07/20 08:45:36;;;;;;;26.08;10.73;;;;;;;;;;5034160;28;20037;-79
2022/07/20 08:48:04;;;;;;;21.40;11.27;;;;;;;;;;5033685;28;20033;-78
2022/07/20 08:50:31;;;;;;;25.85;10.48;;;;;;;;;;5035946;28;20029;-78
2022/07/20 08:52:57;;;;;;;25.73;11.07;;;;;;;;;;5038367;28;20376;-77
2022/07/20 08:55:24;;;;;;;22.45;10.27;;;;;;;;;;5037184;28;20087;-77
2022/07/20 08:57:51;;;;;;;24.17;10.13;;;;;;;;;;5039539;28;20410;-79
2022/07/20 09:00:17;;;;;;;23.67;10.38;;;;;;;;;;5040971;28;20009;-77
2022/07/20 09:02:49;;;;;;;15.15;10.05;;;;;;;;;;5040336;28;20033;-78
2022/07/20 09:05:15;;;;;;;20.58;10.07;;;;;;;;;;5039185;28;20037;-79
2022/07/20 09:07:42;;;;;;;22.50;10.40;;;;;;;;;;5041162;28;20097;-78
2022/07/20 09:10:14;;;;;;;19.50;9.35;;;;;;;;;;5041530;28;20025;-77
2022/07/20 09:12:58;;;;;;;17.40;9.35;;;;;;;;;;5040788;28;20029;-77
2022/07/20 09:15:27;;;;;;;19.65;8.85;;;;;;;;;;5043357;28;20022;-77
2022/07/20 09:18:12;;;;;;;19.67;9.30;;;;;;;;;;5043364;28;20129;-78
2022/07/20 09:20:39;;;;;;;17.00;8.35;;;;;;;;;;5042583;28;20021;-77
2022/07/20 09:23:07;;;;;;;19.80;8.82;;;;;;;;;;5041172;28;20033;-78
2022/07/20 09:25:34;;;;;;;16.95;8.68;;;;;;;;;;5041308;28;20132;-80
2022/07/20 09:28:00;;;;;;;19.90;9.40;;;;;;;;;;5038922;28;20083;-77
2022/07/20 09:30:26;;;;;;;18.77;8.80;;;;;;;;;;5037076;28;20112;-78
2022/07/20 09:32:57;;;;;;;16.38;8.43;;;;;;;;;;5037032;28;20030;-78
2022/07/20 09:35:24;;;;;;;15.85;8.60;;;;;;;;;;5035700;28;20045;-78
2022/07/20 09:37:50;;;;;;;15.75;8.70;;;;;;;;;;5035195;28;20033;-78
2022/07/20 09:40:16;;;;;;;17.52;8.98;;;;;;;;;;5034801;28;20124;-78
2022/07/20 09:42:43;;;;;;;29.75;9.57;;;;;;;;;;5034424;28;20029;-78
2022/07/20 09:45:18;;;;;;;23.42;9.65;;;;;;;;;;5034270;28;20021;-77
2022/07/20 09:48:00;;;;;;;17.67;9.02;;;;;;;;;;5034908;28;20130;-78
2022/07/20 09:50:27;;;;;;;14.98;9.25;;;;;;;;;;5033304;28;20024;-78
2022/07/20 09:52:53;;;;;;;13.18;8.68;;;;;;;;;;5033814;28;20044;-77
2022/07/20 09:55:20;;;;;;;24.10;9.45;;;;;;;;;;5035880;28;20445;-79
2022/07/20 09:57:46;;;;;;;18.63;8.48;;;;;;;;;;5035987;28;20057;-79
2022/07/20 10:00:12;;;;;;;14.80;8.75;;;;;;;;;;5040031;28;20033;-78
2022/07/20 10:02:38;;;;;;;19.85;9.25;;;;;;;;;;5041462;28;20045;-78
2022/07/20 10:05:05;;;;;;;15.10;9.50;;;;;;;;;;5040420;28;20043;-77
2022/07/20 10:07:31;;;;;;;18.77;9.45;;;;;;;;;;5043186;28;20109;-78
2022/07/20 10:09:58;;;;;;;15.43;8.60;;;;;;;;;;5043601;28;20034;-78
2022/07/20 10:12:24;;;;;;;17.08;8.10;;;;;;;;;;5041474;28;20025;-79
2022/07/20 10:14:51;;;;;;;18.80;7.30;;;;;;;;;;5042458;28;20049;-78
2022/07/20 10:17:18;;;;;;;10.93;6.90;;;;;;;;;;5042726;28;20018;-79
2022/07/20 10:19:48;;;;;;;15.07;6.97;;;;;;;;;;5042219;28;20032;-78
2022/07/20 10:22:15;;;;;;;13.27;7.05;;;;;;;;;;5040328;28;20037;-77
2022/07/20 10:24:43;;;;;;;15.60;7.28;;;;;;;;;;5042541;28;20479;-78
2022/07/20 10:27:10;;;;;;;10.68;6.43;;;;;;;;;;5041212;28;20018;-76
2022/07/20 10:29:37;;;;;;;11.68;6.85;;;;;;;;;;5039687;28;20380;-77
2022/07/20 10:32:16;;;;;;;14.77;7.75;;;;;;;;;;5038911;28;20068;-77
2022/07/20 10:34:42;;;;;;;14.05;6.50;;;;;;;;;;5039307;28;20017;-77
2022/07/20 10:37:28;;;;;;;12.60;6.22;;;;;;;;;;5037723;28;20072;-76
2022/07/20 10:40:03;;;;;;;10.50;6.45;;;;;;;;;;5035703;28;20033;-76
2022/07/20 10:42:31;;;;;;;14.85;5.80;;;;;;;;;;5034218;28;20030;-77
2022/07/20 10:45:16;;;;;;;13.07;6.90;;;;;;;;;;5034302;28;20033;-77
2022/07/20 10:47:43;;;;;;;14.77;6.63;;;;;;;;;;5033746;28;20388;-77
2022/07/20 10:50:19;;;;;;;17.90;7.32;;;;;;;;;;5033763;28;20021;-77
2022/07/20 10:52:46;;;;;;;13.23;7.05;;;;;;;;;;5033634;28;20025;-78
2022/07/20 10:55:31;;;;;;;16.23;7.20;;;;;;;;;;5033796;28;20029;-76
2022/07/20 10:57:57;;;;;;;13.00;7.18;;;;;;;;;;5034424;28;20120;-77
2022/07/20 11:00:29;;;;;;;14.05;7.30;;;;;;;;;;5034955;28;20083;-77
2022/07/20 11:02:56;;;;;;;17.20;7.78;;;;;;;;;;5036926;28;20036;-78
2022/07/20 11:05:22;;;;;;;10.98;7.05;;;;;;;;;;5038008;28;20079;-77
2022/07/20 11:07:49;;;;;;;12.23;6.70;;;;;;;;;;5039882;28;20030;-78
2022/07/20 11:10:25;;;;;;;14.07;7.00;;;;;;;;;;5040995;28;20022;-77
2022/07/20 11:13:00;;;;;;;13.60;6.63;;;;;;;;;;5042444;28;20030;-79
2022/07/20 11:15:43;;;;;;;16.10;6.47;;;;;;;;;;5042329;28;20053;-76
2022/07/20 11:18:10;;;;;;;12.75;5.40;;;;;;;;;;5041675;28;20041;-77
2022/07/20 11:20:37;;;;;;;11.00;5.63;;;;;;;;;;5040516;28;20021;-77
2022/07/20 11:23:03;;;;;;;12.70;6.07;;;;;;;;;;5041670;28;20029;-77
2022/07/20 11:25:47;;;;;;;10.88;5.75;;;;;;;;;;5042371;28;20048;-77
2022/07/20 11:28:14;;;;;;;13.63;6.20;;;;;;;;;;5041519;28;20018;-78
2022/07/20 11:30:42;;;;;;;13.90;5.90;;;;;;;;;;5039936;28;20030;-76
2022/07/20 11:33:08;;;;;;;11.88;5.28;;;;;;;;;;5037978;28;20585;-78
2022/07/20 11:35:34;;;;;;;17.70;6.25;;;;;;;;;;5038545;28;20069;-77
2022/07/20 11:38:00;;;;;;;7.72;5.00;;;;;;;;;;5036230;28;20061;-77
2022/07/20 11:40:27;;;;;;;18.65;5.13;;;;;;;;;;5034655;28;20037;-77
2022/07/20 11:43:14;;;;;;;8.52;5.70;;;;;;;;;;5033591;28;20021;-77
2022/07/20 11:45:40;;;;;;;15.80;5.88;;;;;;;;;;5033206;28;20030;-78
2022/07/20 11:48:16;;;;;;;14.02;6.28;;;;;;;;;;5032915;28;20061;-77
2022/07/20 11:50:42;;;;;;;13.52;6.38;;;;;;;;;;5031556;28;20065;-77
2022/07/20 11:53:22;;;;;;;12.52;6.53;;;;;;;;;;5031781;28;20087;-76
2022/07/20 11:55:48;;;;;;;9.13;5.90;;;;;;;;;;5032960;28;20021;-78
2022/07/20 11:58:14;;;;;;;16.75;5.15;;;;;;;;;;5033300;28;20061;-78
2022/07/20 12:00:40;;;;;;;8.48;4.90;;;;;;;;;;5034050;28;20108;-78
2022/07/20 12:03:07;;;;;;;12.18;4.95;;;;;;;;;;5035553;28;20033;-76
2022/07/20 12:05:34;;;;;;;12.68;5.53;;;;;;;;;;5038517;28;20056;-76
2022/07/20 12:08:18;;;;;;;10.35;4.53;;;;;;;;;;5038834;28;20048;-77
2022/07/20 12:10:44;;;;;;;11.82;5.00;;;;;;;;;;5038944;28;20045;-79
2022/07/20 12:13:13;;;;;;;8.80;5.13;;;;;;;;;;5040668;28;20072;-77
2022/07/20 12:15:40;;;;;;;19.05;5.95;;;;;;;;;;5041791;28;20009;-79
2022/07/20 12:18:06;;;;;;;11.55;5.65;;;;;;;;;;5041153;28;20048;-77
2022/07/20 12:20:32;;;;;;;11.63;5.93;;;;;;;;;;5038183;28;20099;-77
2022/07/20 12:22:59;;;;;;;7.22;5.07;;;;;;;;;;5041628;28;20041;-78
2022/07/20 12:25:40;;;;;;;14.43;6.10;;;;;;;;;;5041026;28;20311;-78
2022/07/20 12:28:06;;;;;;;14.00;6.28;;;;;;;;;;5040618;28;20284;-79
2022/07/20 12:30:41;;;;;;;11.60;5.78;;;;;;;;;;5037830;28;20025;-78
2022/07/20 12:33:15;;;;;;;11.70;5.85;;;;;;;;;;5036511;28;20033;-78
2022/07/20 12:35:42;;;;;;;15.40;6.90;;;;;;;;;;5036758;28;20424;-78
2022/07/20 12:38:08;;;;;;;23.25;6.72;;;;;;;;;;5034999;28;20025;-79
2022/07/20 12:40:39;;;;;;;25.83;6.78;;;;;;;;;;5032980;28;20079;-78
2022/07/20 12:43:07;;;;;;;26.90;7.57;;;;;;;;;;5031973;28;20056;-77
2022/07/20 12:45:33;;;;;;;30.27;8.55;;;;;;;;;;5031659;28;20068;-77
2022/07/20 12:47:59;;;;;;;27.80;8.07;;;;;;;;;;5032089;28;20028;-77
2022/07/20 12:50:25;;;;;;;17.75;8.68;;;;;;;;;;5035644;28;20501;-78
2022/07/20 12:52:51;;;;;;;20.73;8.82;;;;;;;;;;5034819;28;20025;-77
2022/07/20 12:55:17;;;;;;;17.70;9.43;;;;;;;;;;5036578;28;20398;-77
2022/07/20 12:57:43;;;;;;;26.67;9.07;;;;;;;;;;5036078;28;20053;-77
2022/07/20 13:00:10;;;;;;;15.85;9.45;;;;;;;;;;5037763;28;20014;-76
2022/07/20 13:02:36;;;;;;;17.08;9.30;;;;;;;;;;5040957;28;20044;-77
2022/07/20 13:05:02;;;;;;;14.20;8.45;;;;;;;;;;5041071;28;20029;-77
2022/07/20 13:07:28;;;;;;;17.73;8.27;;;;;;;;;;5043951;28;20018;-77
2022/07/20 13:09:54;;;;;;;21.70;9.18;;;;;;;;;;5045282;28;20048;-77
2022/07/20 13:12:20;;;;;;;17.83;9.18;;;;;;;;;;5043256;28;20230;-78
2022/07/20 13:14:46;;;;;;;13.65;8.63;;;;;;;;;;5044551;28;20029;-78
2022/07/20 13:17:12;;;;;;;21.25;9.85;;;;;;;;;;5044711;28;20017;-76
2022/07/20 13:19:37;;;;;;;16.08;10.20;;;;;;;;;;5043321;28;20115;-78
2022/07/20 13:22:04;;;;;;;21.40;9.98;;;;;;;;;;5041408;28;20116;-77
2022/07/20 13:24:30;;;;;;;19.60;11.20;;;;;;;;;;5044092;28;20021;-77
2022/07/20 13:26:56;;;;;;;16.25;10.82;;;;;;;;;;5041644;28;20029;-78
2022/07/20 13:29:24;;;;;;;17.30;10.55;;;;;;;;;;5038707;28;20026;-76
2022/07/20 13:31:50;;;;;;;19.30;11.20;;;;;;;;;;5040978;28;20757;-76
2022/07/20 13:34:16;;;;;;;17.80;10.93;;;;;;;;;;5040213;28;20116;-77
2022/07/20 13:36:42;;;;;;;16.15;10.35;;;;;;;;;;5037339;28;20048;-78
2022/07/20 13:39:08;;;;;;;16.48;9.60;;;;;;;;;;5036235;28;20135;-76
2022/07/20 13:41:34;;;;;;;18.83;9.00;;;;;;;;;;5034983;28;20034;-76
2022/07/20 13:44:00;;;;;;;20.25;9.05;;;;;;;;;;5034277;28;20076;-77
2022/07/20 13:46:27;;;;;;;19.17;8.95;;;;;;;;;;5034182;28;20026;-76
2022/07/20 13:48:56;;;;;;;16.48;9.40;;;;;;;;;;5033083;28;20029;-77
2022/07/20 13:51:22;;;;;;;16.55;10.40;;;;;;;;;;5034802;28;20036;-76
2022/07/20 13:53:48;;;;;;;20.40;9.68;;;;;;;;;;5035632;28;20033;-77
2022/07/20 13:56:14;;;;;;;27.20;10.52;;;;;;;;;;5036180;28;20159;-77
2022/07/20 13:58:40;;;;;;;16.70;10.02;;;;;;;;;;5036086;28;20191;-77
2022/07/20 14:01:07;;;;;;;18.80;9.57;;;;;;;;;;5036984;28;20033;-76
2022/07/20 14:03:33;;;;;;;16.92;9.38;;;;;;;;;;5040756;28;20106;-77
2022/07/20 14:05:59;;;;;;;12.23;8.60;;;;;;;;;;5040421;28;20073;-77
2022/07/20 14:08:25;;;;;;;22.17;10.43;;;;;;;;;;5042852;28;20026;-78
2022/07/20 14:10:51;;;;;;;18.08;10.20;;;;;;;;;;5041203;28;20040;-77
2022/07/20 14:13:21;;;;;;;15.23;9.80;;;;;;;;;;5041186;28;20495;-78
2022/07/20 14:15:47;;;;;;;19.43;10.70;;;;;;;;;;5043668;28;20117;-77
2022/07/20 14:18:13;;;;;;;16.10;10.65;;;;;;;;;;5043328;28;20017;-77
2022/07/20 14:20:39;;;;;;;20.15;11.30;;;;;;;;;;5042280;28;20486;-78
2022/07/20 14:23:05;;;;;;;19.83;11.05;;;;;;;;;;5041766;28;20052;-77
2022/07/20 14:25:32;;;;;;;20.80;10.88;;;;;;;;;;5042227;28;20025;-78
2022/07/20 14:27:58;;;;;;;21.30;11.68;;;;;;;;;;5040597;28;20061;-78